Time;durP1;ratioP1;P1;durP2;ratioP2;P2;SDS_P1;SDS_P2;PMS_P1;PMS_P2;Temp;Humidity;BMP_temperature;BMP_pressure;BME280_temperature;BME280_humidity;BME280_pressure;Samples;Min_cycle;Max_cycle;Signal;HPM_P1;HPM_P2
2022/03/26 00:01:57;;;;;;;;;;;;;;;14.10;27.99;100579.81;4490208;31;34174;-64
2022/03/26 00:04:25;;;;;;;;;;;;;;;14.06;28.18;100572.97;4494706;31;33184;-65
2022/03/26 00:06:53;;;;;;;;;;;;;;;14.11;28.10;100578.84;4494752;31;34645;-65
2022/03/26 00:09:21;;;;;;;;;;;;;;;14.03;28.25;100573.19;4483921;31;34664;-65
2022/03/26 00:11:49;;;;;;;;;;;;;;;13.95;28.20;100578.28;4482239;31;33971;-65
2022/03/26 00:14:16;;;;;;;;;;;;;;;13.99;28.13;100577.06;4482705;31;34288;-64
2022/03/26 00:16:44;;;;;;;;;;;;;;;13.90;28.36;100575.97;4482936;31;35353;-65
2022/03/26 00:19:12;;;;;;;;;;;;;;;13.83;28.67;100593.50;4495214;31;33303;-66
2022/03/26 00:21:39;;;;;;;;;;;;;;;13.75;28.61;100588.72;4482850;31;34070;-65
2022/03/26 00:24:07;;;;;;;;;;;;;;;13.73;28.78;100593.34;4488378;31;35328;-64
2022/03/26 00:26:35;;;;;;;;;;;;;;;13.83;28.53;100587.28;4482893;31;35758;-64
2022/03/26 00:29:03;;;;;;;;;;;;;;;13.74;28.70;100588.84;4491310;31;34539;-65
2022/03/26 00:31:33;;;;;;;;;;;;;;;13.72;28.75;100593.47;4481482;31;34363;-65
2022/03/26 00:34:01;;;;;;;;;;;;;;;13.74;28.82;100589.69;4482632;31;34825;-65
2022/03/26 00:36:29;;;;;;;;;;;;;;;13.79;28.93;100585.81;4489769;31;34269;-65
2022/03/26 00:38:57;;;;;;;;;;;;;;;13.82;28.92;100590.97;4496323;31;34119;-65
2022/03/26 00:41:25;;;;;;;;;;;;;;;13.91;28.57;100577.66;4493953;31;33158;-65
2022/03/26 00:43:53;;;;;;;;;;;;;;;13.92;28.54;100581.22;4486045;31;33979;-65
2022/03/26 00:46:21;;;;;;;;;;;;;;;13.88;28.75;100579.72;4483011;31;34735;-64
2022/03/26 00:48:49;;;;;;;;;;;;;;;13.88;28.76;100575.19;4486152;31;34686;-64
2022/03/26 00:51:17;;;;;;;;;;;;;;;13.69;28.98;100581.09;4486849;31;34041;-64
2022/03/26 00:53:45;;;;;;;;;;;;;;;13.84;28.59;100575.56;4492170;31;34035;-64
2022/03/26 00:56:13;;;;;;;;;;;;;;;13.78;28.55;100584.09;4484512;31;34182;-64
2022/03/26 00:58:40;;;;;;;;;;;;;;;13.79;28.73;100586.66;4488832;31;33556;-64
2022/03/26 01:01:08;;;;;;;;;;;;;;;13.49;29.60;100577.22;4492383;31;37129;-65
2022/03/26 01:03:36;;;;;;;;;;;;;;;13.71;28.89;100572.94;4485396;31;34263;-64
2022/03/26 01:06:04;;;;;;;;;;;;;;;13.57;29.15;100581.16;4486795;31;34520;-64
2022/03/26 01:08:32;;;;;;;;;;;;;;;13.76;28.75;100578.81;4496473;31;34079;-63
2022/03/26 01:11:00;;;;;;;;;;;;;;;13.60;29.29;100573.72;4486576;31;33992;-64
2022/03/26 01:13:29;;;;;;;;;;;;;;;13.62;29.25;100577.16;4488437;31;34095;-65
2022/03/26 01:15:56;;;;;;;;;;;;;;;13.69;28.94;100574.88;4494303;31;34736;-63
2022/03/26 01:18:24;;;;;;;;;;;;;;;13.59;29.24;100572.00;4490580;31;33698;-64
2022/03/26 01:20:52;;;;;;;;;;;;;;;13.57;29.29;100570.41;4488687;31;34149;-63
2022/03/26 01:23:20;;;;;;;;;;;;;;;13.39;29.89;100562.72;4488722;31;34009;-65
2022/03/26 01:25:48;;;;;;;;;;;;;;;13.62;29.43;100569.09;4485790;31;35512;-65
2022/03/26 01:28:16;;;;;;;;;;;;;;;13.70;29.38;100566.66;4488778;31;34348;-65
2022/03/26 01:30:44;;;;;;;;;;;;;;;13.77;29.50;100571.59;4486808;31;34174;-65
2022/03/26 01:33:12;;;;;;;;;;;;;;;13.77;29.62;100558.13;4484868;31;35374;-64
2022/03/26 01:35:40;;;;;;;;;;;;;;;13.80;29.54;100565.97;4489103;31;33206;-64
2022/03/26 01:38:07;;;;;;;;;;;;;;;13.83;29.94;100555.00;4491985;31;33528;-65
2022/03/26 01:40:36;;;;;;;;;;;;;;;13.98;29.50;100556.53;4488441;31;35252;-64
2022/03/26 01:43:03;;;;;;;;;;;;;;;14.05;29.60;100547.00;4486964;31;33991;-65
2022/03/26 01:45:31;;;;;;;;;;;;;;;14.21;29.34;100552.91;4484351;31;34372;-64
2022/03/26 01:47:59;;;;;;;;;;;;;;;14.29;29.02;100549.66;4493879;31;33450;-64
2022/03/26 01:50:28;;;;;;;;;;;;;;;14.26;28.89;100541.81;4496926;31;34062;-64
2022/03/26 01:52:56;;;;;;;;;;;;;;;14.25;28.90;100550.84;4490467;31;35268;-64
2022/03/26 01:55:24;;;;;;;;;;;;;;;14.16;29.16;100551.59;4484721;31;34487;-64
2022/03/26 01:57:53;;;;;;;;;;;;;;;14.15;29.10;100549.84;4489231;31;33437;-65
2022/03/26 02:00:20;;;;;;;;;;;;;;;14.14;28.82;100546.28;4488768;31;34074;-65
2022/03/26 02:02:48;;;;;;;;;;;;;;;13.92;29.22;100544.38;4490384;31;35532;-64
2022/03/26 02:05:18;;;;;;;;;;;;;;;13.80;29.28;100544.47;4484206;31;34880;-65
2022/03/26 02:07:46;;;;;;;;;;;;;;;13.47;30.29;100543.31;4488009;31;35009;-65
2022/03/26 02:10:16;;;;;;;;;;;;;;;13.42;30.12;100542.81;4489493;31;34739;-64
2022/03/26 02:12:47;;;;;;;;;;;;;;;13.38;30.15;100547.53;4493215;31;34500;-64
2022/03/26 02:15:15;;;;;;;;;;;;;;;13.24;30.74;100542.31;4485515;31;34528;-64
2022/03/26 02:17:44;;;;;;;;;;;;;;;13.25;30.43;100542.22;4485954;31;34772;-64
2022/03/26 02:20:12;;;;;;;;;;;;;;;13.14;30.85;100544.81;4499274;31;34116;-64
2022/03/26 02:22:40;;;;;;;;;;;;;;;13.33;30.32;100548.87;4493460;31;35354;-64
2022/03/26 02:25:09;;;;;;;;;;;;;;;13.15;31.16;100540.28;4484849;31;35324;-65
2022/03/26 02:27:37;;;;;;;;;;;;;;;13.05;31.20;100542.78;4484449;31;32316;-64
2022/03/26 02:30:05;;;;;;;;;;;;;;;12.83;31.48;100540.78;4500151;31;34126;-63
2022/03/26 02:32:33;;;;;;;;;;;;;;;12.93;31.43;100539.13;4485120;31;34537;-65
2022/03/26 02:35:01;;;;;;;;;;;;;;;12.71;32.24;100541.66;4494478;31;34558;-63
2022/03/26 02:37:31;;;;;;;;;;;;;;;12.68;32.32;100537.38;4490886;31;33480;-64
2022/03/26 02:40:00;;;;;;;;;;;;;;;12.85;31.87;100528.09;4488904;31;34508;-64
2022/03/26 02:42:28;;;;;;;;;;;;;;;12.96;31.52;100535.37;4487249;31;34213;-64
2022/03/26 02:44:59;;;;;;;;;;;;;;;12.99;31.29;100535.16;4488789;31;35121;-64
2022/03/26 02:47:27;;;;;;;;;;;;;;;12.98;31.48;100536.13;4485898;31;33754;-64
2022/03/26 02:49:54;;;;;;;;;;;;;;;12.97;31.61;100540.66;4494689;31;34262;-64
2022/03/26 02:52:23;;;;;;;;;;;;;;;12.93;31.58;100536.44;4483992;31;34441;-64
2022/03/26 02:54:52;;;;;;;;;;;;;;;12.89;31.82;100536.81;4493949;31;34096;-64
2022/03/26 02:57:19;;;;;;;;;;;;;;;12.98;31.61;100546.88;4490940;31;34585;-64
2022/03/26 02:59:47;;;;;;;;;;;;;;;13.01;31.37;100541.28;4493254;31;34325;-64
2022/03/26 03:02:15;;;;;;;;;;;;;;;12.84;31.48;100542.50;4497840;31;34503;-65
2022/03/26 03:04:43;;;;;;;;;;;;;;;12.61;32.15;100540.59;4488558;31;32945;-64
2022/03/26 03:07:11;;;;;;;;;;;;;;;12.66;31.74;100544.66;4483047;31;33412;-64
2022/03/26 03:09:39;;;;;;;;;;;;;;;12.23;32.59;100536.06;4492885;31;34237;-64
2022/03/26 03:12:07;;;;;;;;;;;;;;;12.30;32.30;100542.75;4494187;31;35953;-64
2022/03/26 03:14:37;;;;;;;;;;;;;;;12.00;33.24;100540.31;4487735;31;34431;-63
2022/03/26 03:17:07;;;;;;;;;;;;;;;12.14;32.72;100551.00;4492779;31;33618;-64
2022/03/26 03:19:37;;;;;;;;;;;;;;;12.38;32.03;100550.25;4488465;31;33968;-64
2022/03/26 03:22:07;;;;;;;;;;;;;;;12.33;31.98;100546.06;4496340;31;33666;-63
2022/03/26 03:24:36;;;;;;;;;;;;;;;11.80;32.80;100536.28;4487510;31;34703;-64
2022/03/26 03:27:05;;;;;;;;;;;;;;;11.75;33.36;100541.09;4493710;31;33756;-64
2022/03/26 03:29:34;;;;;;;;;;;;;;;11.79;33.36;100547.97;4479038;31;34898;-63
2022/03/26 03:32:04;;;;;;;;;;;;;;;11.80;33.47;100547.00;4480555;31;32894;-63
2022/03/26 03:34:33;;;;;;;;;;;;;;;11.71;33.58;100540.44;4490153;31;34370;-63
2022/03/26 03:37:02;;;;;;;;;;;;;;;11.86;33.17;100546.63;4491907;31;33412;-64
2022/03/26 03:39:32;;;;;;;;;;;;;;;11.78;33.27;100546.25;4490388;31;32825;-63
2022/03/26 03:42:02;;;;;;;;;;;;;;;11.57;34.01;100545.87;4482025;31;32957;-63
2022/03/26 03:44:31;;;;;;;;;;;;;;;11.53;34.26;100541.69;4491481;31;33382;-64
2022/03/26 03:47:03;;;;;;;;;;;;;;;11.77;33.81;100537.34;4482462;31;33778;-65
2022/03/26 03:49:32;;;;;;;;;;;;;;;11.64;33.98;100539.97;4479221;31;33052;-64
2022/03/26 03:52:04;;;;;;;;;;;;;;;11.62;34.03;100536.56;4481302;31;34425;-63
2022/03/26 03:54:31;;;;;;;;;;;;;;;11.71;34.19;100535.06;4484692;31;33771;-63
2022/03/26 03:57:00;;;;;;;;;;;;;;;12.09;33.02;100535.19;4482250;31;32251;-64
2022/03/26 03:59:29;;;;;;;;;;;;;;;12.20;32.61;100530.91;4491087;31;33928;-63
2022/03/26 04:01:58;;;;;;;;;;;;;;;12.02;33.23;100535.72;4487010;31;34145;-64
2022/03/26 04:04:27;;;;;;;;;;;;;;;12.19;32.65;100532.72;4494587;31;35322;-64
2022/03/26 04:06:55;;;;;;;;;;;;;;;11.96;33.13;100531.63;4481886;31;33491;-64
2022/03/26 04:09:24;;;;;;;;;;;;;;;12.08;32.89;100527.25;4486565;31;34348;-64
2022/03/26 04:11:53;;;;;;;;;;;;;;;12.15;32.77;100530.38;4493050;31;35031;-64
2022/03/26 04:14:21;;;;;;;;;;;;;;;12.17;32.68;100523.94;4485784;31;32969;-64
2022/03/26 04:16:51;;;;;;;;;;;;;;;12.07;32.97;100533.56;4494505;31;32377;-64
2022/03/26 04:19:20;;;;;;;;;;;;;;;11.70;33.90;100530.69;4479188;31;33356;-64
2022/03/26 04:21:49;;;;;;;;;;;;;;;11.95;33.23;100535.28;4493076;31;35392;-65
2022/03/26 04:24:17;;;;;;;;;;;;;;;11.86;33.53;100539.44;4482912;31;33085;-65
2022/03/26 04:26:51;;;;;;;;;;;;;;;11.84;33.43;100543.16;4482189;31;33970;-65
2022/03/26 04:29:21;;;;;;;;;;;;;;;11.99;32.96;100542.16;4483131;31;34150;-64
2022/03/26 04:31:49;;;;;;;;;;;;;;;11.47;34.52;100552.81;4494501;31;33664;-64
2022/03/26 04:34:19;;;;;;;;;;;;;;;11.39;34.98;100551.47;4482353;31;34184;-64
2022/03/26 04:36:48;;;;;;;;;;;;;;;11.32;35.10;100557.34;4492277;31;33253;-65
2022/03/26 04:39:17;;;;;;;;;;;;;;;11.93;33.53;100555.97;4490016;31;33609;-63
2022/03/26 04:41:47;;;;;;;;;;;;;;;11.80;33.58;100553.22;4481188;31;33016;-64
2022/03/26 04:44:16;;;;;;;;;;;;;;;11.64;34.47;100555.22;4488825;31;34942;-65
2022/03/26 04:46:44;;;;;;;;;;;;;;;11.52;34.68;100556.03;4483556;31;33282;-64
2022/03/26 04:49:14;;;;;;;;;;;;;;;11.76;33.92;100554.41;4482099;31;34806;-63
2022/03/26 04:51:42;;;;;;;;;;;;;;;11.98;33.99;100555.69;4489459;31;35130;-64
2022/03/26 04:54:10;;;;;;;;;;;;;;;11.93;33.83;100547.94;4485091;31;34447;-64
2022/03/26 04:56:38;;;;;;;;;;;;;;;11.69;34.75;100550.41;4491691;31;34240;-64
2022/03/26 04:59:07;;;;;;;;;;;;;;;11.80;34.64;100552.37;4489689;31;34038;-65
2022/03/26 05:01:35;;;;;;;;;;;;;;;12.12;34.17;100550.22;4489933;31;34206;-65
2022/03/26 05:04:03;;;;;;;;;;;;;;;12.06;34.39;100556.88;4484311;31;34316;-65
2022/03/26 05:06:31;;;;;;;;;;;;;;;12.26;33.83;100551.94;4488852;31;33437;-65
2022/03/26 05:09:00;;;;;;;;;;;;;;;12.05;34.50;100559.66;4481464;31;34117;-64
2022/03/26 05:11:28;;;;;;;;;;;;;;;12.47;33.21;100557.69;4491962;31;33243;-65
2022/03/26 05:13:57;;;;;;;;;;;;;;;12.52;32.97;100564.44;4489028;31;34130;-65
2022/03/26 05:16:26;;;;;;;;;;;;;;;12.56;32.98;100565.94;4485229;31;34288;-64
2022/03/26 05:18:54;;;;;;;;;;;;;;;12.85;32.04;100564.88;4481898;31;32881;-64
2022/03/26 05:21:22;;;;;;;;;;;;;;;12.78;32.46;100575.19;4487518;31;35059;-65
2022/03/26 05:23:51;;;;;;;;;;;;;;;12.65;33.10;100577.88;4491385;31;34295;-64
2022/03/26 05:26:22;;;;;;;;;;;;;;;12.29;33.74;100574.06;4496853;31;33667;-65
2022/03/26 05:28:51;;;;;;;;;;;;;;;12.87;32.46;100579.03;4488893;31;33871;-64
2022/03/26 05:31:19;;;;;;;;;;;;;;;13.04;31.81;100573.31;4481959;31;34264;-65
2022/03/26 05:33:47;;;;;;;;;;;;;;;12.85;32.17;100580.97;4488897;31;35849;-65
2022/03/26 05:36:15;;;;;;;;;;;;;;;13.18;31.59;100575.00;4481616;31;34501;-64
2022/03/26 05:38:44;;;;;;;;;;;;;;;13.33;31.25;100575.75;4480870;31;34250;-64
2022/03/26 05:41:12;;;;;;;;;;;;;;;13.56;31.06;100579.44;4482729;31;34051;-64
2022/03/26 05:43:40;;;;;;;;;;;;;;;13.59;31.24;100574.69;4482349;31;34181;-64
2022/03/26 05:46:09;;;;;;;;;;;;;;;13.68;31.10;100579.41;4486942;31;32403;-72
2022/03/26 05:48:38;;;;;;;;;;;;;;;13.72;31.01;100583.56;4492801;31;35226;-63
2022/03/26 05:51:06;;;;;;;;;;;;;;;13.58;31.63;100581.06;4490368;31;34126;-63
2022/03/26 05:53:35;;;;;;;;;;;;;;;13.49;31.80;100579.03;4483372;31;33153;-64
2022/03/26 05:56:03;;;;;;;;;;;;;;;13.61;31.79;100586.22;4481736;31;33438;-63
2022/03/26 05:58:31;;;;;;;;;;;;;;;13.79;31.85;100583.97;4483381;31;32755;-63
2022/03/26 06:01:00;;;;;;;;;;;;;;;14.07;31.10;100584.59;4482547;31;35479;-64
2022/03/26 06:03:29;;;;;;;;;;;;;;;14.12;31.10;100590.47;4486885;31;33414;-63
2022/03/26 06:05:58;;;;;;;;;;;;;;;14.03;31.03;100588.47;4482130;31;33743;-64
2022/03/26 06:08:26;;;;;;;;;;;;;;;14.11;31.14;100591.44;4480690;31;34277;-65
2022/03/26 06:10:55;;;;;;;;;;;;;;;14.10;31.04;100587.91;4494016;31;34888;-66
2022/03/26 06:13:23;;;;;;;;;;;;;;;14.17;31.22;100583.75;4486386;31;33989;-64
2022/03/26 06:15:52;;;;;;;;;;;;;;;14.07;31.79;100590.81;4486131;31;33563;-64
2022/03/26 06:18:20;;;;;;;;;;;;;;;14.50;30.66;100583.97;4489361;31;33657;-65
2022/03/26 06:20:49;;;;;;;;;;;;;;;14.57;30.78;100586.09;4486739;31;33036;-64
2022/03/26 06:23:17;;;;;;;;;;;;;;;14.71;30.99;100586.88;4486016;31;35235;-64
2022/03/26 06:25:45;;;;;;;;;;;;;;;14.74;30.94;100589.31;4481614;31;33373;-64
2022/03/26 06:28:19;;;;;;;;;;;;;;;14.92;30.40;100590.53;4491709;31;33956;-63
2022/03/26 06:30:47;;;;;;;;;;;;;;;15.20;30.30;100591.88;4484704;31;35296;-65
2022/03/26 06:33:16;;;;;;;;;;;;;;;15.37;30.28;100587.81;4489711;31;33122;-65
2022/03/26 06:35:45;;;;;;;;;;;;;;;15.91;29.08;100591.50;4488472;31;34098;-65
2022/03/26 06:38:19;;;;;;;;;;;;;;;16.47;28.36;100592.13;4479213;31;35333;-65
2022/03/26 06:40:47;;;;;;;;;;;;;;;16.89;28.15;100591.25;4481095;31;34319;-65
2022/03/26 06:43:15;;;;;;;;;;;;;;;17.59;27.28;100593.06;4487133;31;35320;-65
2022/03/26 06:45:43;;;;;;;;;;;;;;;18.95;25.08;100595.75;4481447;31;33081;-63
2022/03/26 06:48:12;;;;;;;;;;;;;;;20.32;23.17;100587.59;4488402;31;34669;-63
2022/03/26 06:50:40;;;;;;;;;;;;;;;19.83;23.61;100590.72;4488095;31;34233;-62
2022/03/26 06:53:09;;;;;;;;;;;;;;;19.29;23.93;100587.88;4484902;31;34437;-63
2022/03/26 06:55:37;;;;;;;;;;;;;;;19.03;24.79;100595.84;4484459;31;33976;-62
2022/03/26 06:58:06;;;;;;;;;;;;;;;18.87;24.21;100603.75;4483427;31;34893;-62
2022/03/26 07:00:35;;;;;;;;;;;;;;;18.49;25.58;100601.94;4481733;31;33784;-62
2022/03/26 07:03:10;;;;;;;;;;;;;;;18.60;25.26;100599.09;4485472;31;33255;-62
2022/03/26 07:05:46;;;;;;;;;;;;;;;18.45;25.54;100601.38;4483180;31;33525;-62
2022/03/26 07:08:23;;;;;;;;;;;;;;;18.53;25.81;100601.53;4485294;31;34504;-62
2022/03/26 07:10:59;;;;;;;;;;;;;;;18.70;25.72;100612.63;4492244;31;33264;-62
2022/03/26 07:13:40;;;;;;;;;;;;;;;18.62;25.81;100608.78;4487052;31;33116;-62
2022/03/26 07:16:16;;;;;;;;;;;;;;;18.62;25.94;100613.34;4484559;31;32588;-62
2022/03/26 07:18:55;;;;;;;;;;;;;;;18.52;25.63;100613.37;4492475;31;32813;-62
2022/03/26 07:21:36;;;;;;;;;;;;;;;18.46;26.11;100611.25;4485035;31;34378;-62
2022/03/26 07:24:16;;;;;;;;;;;;;;;17.82;26.69;100614.50;4492657;31;34679;-62
2022/03/26 07:26:52;;;;;;;;;;;;;;;18.38;26.42;100611.94;4482246;31;32345;-62
2022/03/26 07:29:29;;;;;;;;;;;;;;;18.85;24.52;100606.63;4494518;31;32648;-62
2022/03/26 07:32:13;;;;;;;;;;;;;;;18.85;24.61;100608.47;4487636;31;33296;-62
2022/03/26 07:34:52;;;;;;;;;;;;;;;18.53;24.48;100603.37;4485263;31;33274;-62
2022/03/26 07:37:35;;;;;;;;;;;;;;;18.56;24.33;100608.50;4486772;31;33422;-62
2022/03/26 07:40:15;;;;;;;;;;;;;;;18.55;24.04;100609.50;4496403;31;33047;-62
2022/03/26 07:42:53;;;;;;;;;;;;;;;18.29;24.15;100607.38;4488151;31;33147;-62
2022/03/26 07:45:33;;;;;;;;;;;;;;;18.32;25.14;100607.09;4490346;31;34598;-62
2022/03/26 07:48:14;;;;;;;;;;;;;;;18.06;24.77;100611.38;4485544;31;33546;-62
2022/03/26 07:50:50;;;;;;;;;;;;;;;18.45;24.65;100616.78;4500579;31;32760;-62
2022/03/26 07:53:27;;;;;;;;;;;;;;;19.40;23.54;100613.97;4488659;31;33552;-62
2022/03/26 07:55:58;;;;;;;;;;;;;;;22.00;20.69;100607.91;4487472;31;33870;-62
2022/03/26 07:58:34;;;;;;;;;;;;;;;24.43;17.69;100604.81;4495019;31;32506;-63
2022/03/26 08:01:12;;;;;;;;;;;;;;;25.92;16.54;100606.56;4491821;31;34363;-62
2022/03/26 08:03:52;;;;;;;;;;;;;;;26.42;15.89;100607.47;4484878;31;34846;-63
2022/03/26 08:06:30;;;;;;;;;;;;;;;26.22;15.75;100613.63;4491792;31;33855;-63
2022/03/26 08:09:09;;;;;;;;;;;;;;;26.92;15.20;100611.09;4493032;31;34084;-63
2022/03/26 08:11:42;;;;;;;;;;;;;;;27.20;15.24;100605.63;4491066;31;32672;-63
2022/03/26 08:14:19;;;;;;;;;;;;;;;27.06;15.15;100598.28;4489701;31;33793;-63
2022/03/26 08:16:58;;;;;;;;;;;;;;;27.01;15.32;100598.06;4494537;31;33464;-63
2022/03/26 08:19:39;;;;;;;;;;;;;;;27.09;15.43;100592.41;4498128;31;33270;-63
2022/03/26 08:22:11;;;;;;;;;;;;;;;26.99;15.27;100603.75;4494160;31;33396;-63
2022/03/26 08:24:44;;;;;;;;;;;;;;;26.65;15.45;100594.44;4496770;31;34464;-63
2022/03/26 08:27:25;;;;;;;;;;;;;;;26.73;15.47;100601.66;4498135;31;33564;-63
2022/03/26 08:30:07;;;;;;;;;;;;;;;26.25;15.87;100602.28;4485432;31;33402;-63
2022/03/26 08:32:48;;;;;;;;;;;;;;;25.56;16.34;100596.44;4494855;31;34054;-63
2022/03/26 08:35:24;;;;;;;;;;;;;;;24.99;17.44;100594.34;4491368;31;34050;-63
2022/03/26 08:38:04;;;;;;;;;;;;;;;24.31;17.91;100604.38;4493350;31;35109;-62
2022/03/26 08:40:38;;;;;;;;;;;;;;;24.03;18.21;100599.44;4483930;31;34131;-63
2022/03/26 08:43:14;;;;;;;;;;;;;;;23.55;19.15;100598.66;4480493;31;32825;-63
2022/03/26 08:45:44;;;;;;;;;;;;;;;23.32;19.41;100603.22;4493510;31;33162;-63
2022/03/26 08:48:15;;;;;;;;;;;;;;;23.23;18.91;100602.41;4485527;31;33187;-63
2022/03/26 08:50:48;;;;;;;;;;;;;;;21.65;21.09;100602.72;4486697;31;32051;-63
2022/03/26 08:53:18;;;;;;;;;;;;;;;22.41;20.19;100598.94;4492475;31;33356;-63
2022/03/26 08:55:50;;;;;;;;;;;;;;;22.68;20.46;100605.91;4483671;31;35627;-63
2022/03/26 08:58:25;;;;;;;;;;;;;;;22.93;19.85;100615.78;4480547;31;33334;-63
2022/03/26 09:00:55;;;;;;;;;;;;;;;22.96;19.70;100609.13;4485849;31;34560;-63
2022/03/26 09:03:24;;;;;;;;;;;;;;;23.20;19.93;100611.78;4488792;31;32793;-63
2022/03/26 09:05:59;;;;;;;;;;;;;;;22.98;20.09;100607.06;4485283;31;34498;-63
2022/03/26 09:08:30;;;;;;;;;;;;;;;23.20;19.70;100609.03;4497395;31;33189;-63
2022/03/26 09:11:05;;;;;;;;;;;;;;;22.88;20.08;100607.22;4486460;31;33279;-63
2022/03/26 09:13:34;;;;;;;;;;;;;;;22.07;20.53;100608.94;4492296;31;34291;-63
2022/03/26 09:16:06;;;;;;;;;;;;;;;22.56;19.94;100595.34;4492013;31;32902;-63
2022/03/26 09:18:42;;;;;;;;;;;;;;;22.58;20.19;100600.63;4493319;31;33339;-63
2022/03/26 09:21:17;;;;;;;;;;;;;;;22.87;20.10;100594.62;4491426;31;32824;-63
2022/03/26 09:23:52;;;;;;;;;;;;;;;22.97;20.04;100602.66;4489273;31;35087;-63
2022/03/26 09:26:24;;;;;;;;;;;;;;;22.93;20.33;100588.50;4473579;31;33374;-65
2022/03/26 09:28:55;;;;;;;;;;;;;;;22.27;21.11;100593.13;4489738;31;34462;-62
2022/03/26 09:31:30;;;;;;;;;;;;;;;22.76;20.51;100593.13;4492522;31;32466;-63
2022/03/26 09:34:10;;;;;;;;;;;;;;;22.42;20.52;100593.31;4489755;31;32995;-63
2022/03/26 09:36:47;;;;;;;;;;;;;;;22.89;19.94;100588.97;4484015;31;34212;-63
2022/03/26 09:39:19;;;;;;;;;;;;;;;23.20;19.75;100584.47;4483933;31;33458;-63
2022/03/26 09:41:56;;;;;;;;;;;;;;;23.01;19.53;100585.72;4487613;31;32942;-63
2022/03/26 09:44:28;;;;;;;;;;;;;;;22.67;20.17;100591.41;4472813;31;33850;-64
2022/03/26 09:47:00;;;;;;;;;;;;;;;22.62;20.16;100584.75;4480731;31;34094;-63
2022/03/26 09:49:40;;;;;;;;;;;;;;;22.54;20.52;100593.81;4486241;31;35129;-63
2022/03/26 09:52:15;;;;;;;;;;;;;;;21.73;21.37;100592.69;4490090;31;37134;-63
2022/03/26 09:54:46;;;;;;;;;;;;;;;21.93;20.59;100593.25;4489418;31;33948;-63
2022/03/26 09:57:18;;;;;;;;;;;;;;;22.13;20.12;100599.22;4489658;31;34955;-64
2022/03/26 09:59:51;;;;;;;;;;;;;;;22.78;20.56;100590.19;4492247;31;34310;-63
2022/03/26 10:02:26;;;;;;;;;;;;;;;22.50;19.43;100589.72;4489503;31;33620;-63
2022/03/26 10:04:56;;;;;;;;;;;;;;;22.94;19.26;100590.19;4490432;31;33822;-63
2022/03/26 10:07:31;;;;;;;;;;;;;;;22.64;18.82;100590.91;4482517;31;32951;-64
2022/03/26 10:10:04;;;;;;;;;;;;;;;22.99;18.46;100587.78;4489016;31;34293;-63
2022/03/26 10:12:35;;;;;;;;;;;;;;;22.99;18.16;100587.78;4486611;31;32537;-63
2022/03/26 10:15:11;;;;;;;;;;;;;;;23.39;18.45;100579.63;4493757;31;34016;-63
2022/03/26 10:17:42;;;;;;;;;;;;;;;23.43;18.00;100573.63;4490010;31;33635;-63
2022/03/26 10:20:17;;;;;;;;;;;;;;;23.73;17.31;100567.53;4485890;31;33754;-63
2022/03/26 10:22:51;;;;;;;;;;;;;;;23.94;16.38;100575.91;4494626;31;32404;-63
2022/03/26 10:25:31;;;;;;;;;;;;;;;24.09;16.45;100574.09;4490134;31;33013;-63
2022/03/26 10:28:07;;;;;;;;;;;;;;;23.85;16.16;100568.78;4487121;31;33719;-63
2022/03/26 10:33:28;;;;;;;;;;;;;;;24.44;15.92;100571.81;4486160;31;33908;-63
2022/03/26 10:35:59;;;;;;;;;;;;;;;24.57;15.77;100565.69;4489103;31;34035;-64
2022/03/26 10:38:43;;;;;;;;;;;;;;;25.08;14.63;100558.47;4482782;31;33544;-63
2022/03/26 10:41:16;;;;;;;;;;;;;;;25.09;15.53;100560.16;4483602;31;34200;-63
2022/03/26 10:43:50;;;;;;;;;;;;;;;25.05;15.34;100549.78;4477756;31;33087;-64
2022/03/26 10:46:26;;;;;;;;;;;;;;;24.80;16.02;100557.41;4474889;31;33734;-63
2022/03/26 10:49:04;;;;;;;;;;;;;;;24.33;15.96;100555.78;4492480;31;34569;-64
2022/03/26 10:51:42;;;;;;;;;;;;;;;24.31;15.96;100550.50;4482622;31;34151;-64
2022/03/26 10:54:21;;;;;;;;;;;;;;;24.76;15.52;100542.41;4489080;31;32239;-63
2022/03/26 10:56:57;;;;;;;;;;;;;;;24.40;15.94;100545.81;4483921;31;33885;-63
2022/03/26 10:59:31;;;;;;;;;;;;;;;24.23;16.42;100541.50;4490002;31;34139;-64
2022/03/26 11:02:05;;;;;;;;;;;;;;;24.08;16.55;100538.75;4488404;31;35400;-64
2022/03/26 11:04:36;;;;;;;;;;;;;;;24.37;16.75;100538.84;4483234;31;33240;-63
2022/03/26 11:07:06;;;;;;;;;;;;;;;24.69;16.48;100530.50;4473805;31;34146;-63
2022/03/26 11:09:38;;;;;;;;;;;;;;;24.50;16.41;100529.16;4477903;31;34276;-63
2022/03/26 11:12:11;;;;;;;;;;;;;;;24.50;16.88;100527.28;4484322;31;33091;-64
2022/03/26 11:14:41;;;;;;;;;;;;;;;24.59;15.86;100533.50;4472863;31;32641;-63
2022/03/26 11:17:23;;;;;;;;;;;;;;;24.30;16.01;100526.94;4488099;31;34179;-63
2022/03/26 11:19:56;;;;;;;;;;;;;;;24.38;16.63;100521.38;4485859;31;34310;-63
2022/03/26 11:22:27;;;;;;;;;;;;;;;24.34;15.84;100516.47;4489875;31;33402;-64
2022/03/26 11:25:05;;;;;;;;;;;;;;;24.73;15.34;100508.03;4464086;31;32222;-64
2022/03/26 11:27:53;;;;;;;;;;;;;;;24.10;16.40;100515.63;4483074;31;33038;-64
2022/03/26 11:30:33;;;;;;;;;;;;;;;24.90;15.21;100510.59;4487614;31;33722;-64
2022/03/26 11:33:12;;;;;;;;;;;;;;;25.04;15.04;100506.97;4479189;31;33077;-63
2022/03/26 11:35:55;;;;;;;;;;;;;;;24.73;15.96;100499.00;4480730;31;33166;-63
2022/03/26 11:38:34;;;;;;;;;;;;;;;24.32;15.63;100497.50;4485099;31;34239;-63
2022/03/26 11:41:05;;;;;;;;;;;;;;;25.05;14.83;100486.78;4481915;31;35448;-63
2022/03/26 11:43:46;;;;;;;;;;;;;;;24.67;15.46;100486.06;4480829;31;34073;-63
2022/03/26 11:50:41;;;;;;;;;;;;;;;24.23;14.91;100486.81;4482899;31;34684;-64
2022/03/26 11:52:35;;;;;;;;;;;;;;;24.20;14.22;100474.34;4479053;31;33557;-62
2022/03/26 11:55:07;;;;;;;;;;;;;;;23.02;16.40;100477.41;4466628;31;32876;-64
2022/03/26 11:57:41;;;;;;;;;;;;;;;23.37;16.08;100473.28;4486879;31;33564;-62
2022/03/26 12:00:15;;;;;;;;;;;;;;;22.88;16.00;100464.44;4483649;31;33908;-63
2022/03/26 12:02:53;;;;;;;;;;;;;;;23.47;15.98;100456.66;4484249;31;34076;-63
2022/03/26 12:08:16;;;;;;;;;;;;;;;23.59;16.01;100468.00;4492013;31;34488;-63
2022/03/26 12:10:48;;;;;;;;;;;;;;;24.22;15.16;100455.03;4493817;31;33285;-62
2022/03/26 12:13:22;;;;;;;;;;;;;;;23.19;15.35;100457.16;4480999;31;34379;-63
2022/03/26 12:16:04;;;;;;;;;;;;;;;22.89;16.07;100457.94;4491200;31;34446;-62
2022/03/26 12:18:38;;;;;;;;;;;;;;;23.22;15.83;100450.50;4480157;31;32542;-62
2022/03/26 12:21:21;;;;;;;;;;;;;;;23.45;15.47;100440.44;4489234;31;34362;-63
2022/03/26 12:23:55;;;;;;;;;;;;;;;23.35;15.89;100434.38;4480170;31;33542;-62
2022/03/26 12:26:27;;;;;;;;;;;;;;;23.34;16.14;100429.94;4470165;31;33635;-62
2022/03/26 12:28:57;;;;;;;;;;;;;;;23.87;14.72;100432.78;4484099;31;32888;-63
2022/03/26 12:31:31;;;;;;;;;;;;;;;24.10;14.50;100430.00;4484126;31;35296;-62
2022/03/26 12:34:02;;;;;;;;;;;;;;;24.08;14.57;100430.22;4482784;31;34099;-63
2022/03/26 12:36:34;;;;;;;;;;;;;;;24.00;13.77;100424.81;4496767;31;34581;-62
2022/03/26 12:39:06;;;;;;;;;;;;;;;23.58;13.56;100419.84;4498688;31;32498;-63
2022/03/26 12:41:37;;;;;;;;;;;;;;;23.92;13.65;100413.97;4484775;31;33143;-62
2022/03/26 12:44:10;;;;;;;;;;;;;;;23.33;13.02;100416.44;4491175;31;34307;-63
2022/03/26 12:46:45;;;;;;;;;;;;;;;23.54;13.10;100411.19;4468427;32;35160;-62
2022/03/26 12:49:19;;;;;;;;;;;;;;;22.72;14.17;100419.81;4486254;31;33551;-63
2022/03/26 12:51:53;;;;;;;;;;;;;;;23.10;13.72;100405.50;4483141;31;33520;-61
2022/03/26 12:54:28;;;;;;;;;;;;;;;22.92;13.40;100411.19;4483944;31;35235;-63
2022/03/26 12:57:02;;;;;;;;;;;;;;;22.85;13.37;100413.78;4485948;31;35327;-62
2022/03/26 12:59:30;;;;;;;;;;;;;;;22.74;13.84;100409.59;4484537;31;32071;-63
2022/03/26 13:02:00;;;;;;;;;;;;;;;23.02;13.26;100401.81;4487177;31;33923;-63
2022/03/26 13:04:35;;;;;;;;;;;;;;;22.14;14.24;100399.19;4479876;31;33532;-64
2022/03/26 13:07:06;;;;;;;;;;;;;;;;;;4481324;31;34628;-63
2022/03/26 13:09:33;;;;;;;;;;;;;;;22.97;13.66;100398.75;4483455;31;33754;-62